createdAt,value
2024-04-15T05:00:13.373Z,83.65
2024-04-15T05:05:48.009Z,82.57
2024-04-15T05:10:54.836Z,81.36
2024-04-15T05:22:32.145Z,77.94
2024-04-15T05:28:03.295Z,74.33
2024-04-15T05:33:55.950Z,70.00
2024-04-15T05:55:25.992Z,63.27
2024-04-15T06:07:21.452Z,61.38
2024-04-15T06:12:41.221Z,54.96
2024-04-15T06:18:13.900Z,54.69
2024-04-15T06:23:19.716Z,57.12
2024-04-15T06:28:39.392Z,61.13
2024-04-15T06:40:44.675Z,58.88
2024-04-15T11:36:49.175Z,31.77
2024-04-15T11:42:25.778Z,33.14
2024-04-15T11:47:31.115Z,33.79
2024-04-15T11:52:39.956Z,35.55
2024-04-15T11:57:45.762Z,33.84
2024-04-15T12:02:51.786Z,35.40
2024-04-15T12:08:00.887Z,35.19
2024-04-15T12:13:06.119Z,36.93
2024-04-15T12:18:11.906Z,37.48
2024-04-15T12:23:20.072Z,37.17
2024-04-15T12:28:31.680Z,37.91
2024-04-15T12:33:42.676Z,37.08
2024-04-15T12:38:52.835Z,36.28
2024-04-15T12:44:00.217Z,37.45
2024-04-15T12:49:11.343Z,37.28
2024-04-15T12:54:21.439Z,37.64
2024-04-15T12:59:26.752Z,37.99
2024-04-15T13:04:31.896Z,37.27
2024-04-15T13:09:58.257Z,37.93
2024-04-15T13:15:06.045Z,35.69
2024-04-15T13:32:20.291Z,34.58
2024-04-15T13:37:32.208Z,36.12
2024-04-15T13:43:30.042Z,36.12
2024-04-15T13:48:37.847Z,35.79
2024-04-15T14:00:06.823Z,37.42
2024-04-15T14:05:22.867Z,37.06
2024-04-15T14:10:31.642Z,38.63
2024-04-15T14:15:40.608Z,37.73
2024-04-15T14:20:46.024Z,37.78
2024-04-15T14:25:52.061Z,39.01
2024-04-15T14:31:00.110Z,40.57
2024-04-15T14:36:08.952Z,41.32
2024-04-15T14:41:14.583Z,41.19
2024-04-15T14:46:22.573Z,41.14
2024-04-15T14:51:27.808Z,41.08
2024-04-15T14:56:42.139Z,40.47
2024-04-15T15:01:49.900Z,39.38
2024-04-15T15:06:55.276Z,38.88
2024-04-15T15:12:00.435Z,41.30
2024-04-15T15:17:08.080Z,45.45
2024-04-15T15:22:14.311Z,45.72
2024-04-15T15:27:19.679Z,44.37
2024-04-15T15:32:27.359Z,41.29
2024-04-15T15:37:32.754Z,41.26
2024-04-15T15:42:37.726Z,40.48
2024-04-15T15:47:47.602Z,39.46
2024-04-15T15:52:52.662Z,41.80
2024-04-15T15:57:58.369Z,44.20
2024-04-15T16:03:11.397Z,46.84
2024-04-15T16:08:16.575Z,48.93
2024-04-15T16:13:22.065Z,49.11
2024-04-15T16:18:29.751Z,53.00
2024-04-15T16:23:35.132Z,55.71
2024-04-15T16:28:46.542Z,57.04
2024-04-15T16:33:54.504Z,58.37
2024-04-15T16:38:59.838Z,58.06
2024-04-15T16:44:04.971Z,59.56
2024-04-15T16:49:12.626Z,61.10
2024-04-15T16:54:17.685Z,67.88
2024-04-15T16:59:22.681Z,70.00
2024-04-15T17:04:30.339Z,73.67
2024-04-15T17:09:35.387Z,77.96
2024-04-15T17:14:40.614Z,91.40
2024-04-15T17:19:48.523Z,92.46
2024-04-15T17:24:53.868Z,92.89
2024-04-15T17:29:59.263Z,97.16
2024-04-15T17:35:07.243Z,100.00
2024-04-15T17:40:13.545Z,100.00
2024-04-15T17:45:18.895Z,100.00
2024-04-15T17:50:27.360Z,100.00
2024-04-15T17:55:34.759Z,100.00
2024-04-15T18:00:39.914Z,100.00
2024-04-15T18:05:47.682Z,100.00
2024-04-15T18:10:53.228Z,100.00
2024-04-15T18:15:58.482Z,100.00
2024-04-15T18:21:06.647Z,100.00
2024-04-15T18:26:13.252Z,100.00
2024-04-15T18:31:19.231Z,100.00
2024-04-15T18:36:30.720Z,100.00
2024-04-15T18:41:35.970Z,100.00
2024-04-15T18:46:41.292Z,100.00
2024-04-15T18:51:49.492Z,100.00
2024-04-15T18:56:54.563Z,100.00
2024-04-15T19:01:59.571Z,100.00
2024-04-15T19:07:07.684Z,100.00
2024-04-15T19:12:12.557Z,100.00
2024-04-15T19:17:19.329Z,100.00
2024-04-15T19:22:27.189Z,100.00
2024-04-15T19:27:32.342Z,100.00
2024-04-15T19:32:37.515Z,100.00
2024-04-15T19:37:45.296Z,100.00
2024-04-15T19:42:50.484Z,100.00
2024-04-15T19:48:35.867Z,100.00
2024-04-15T20:00:40.514Z,100.00
2024-04-15T20:05:45.594Z,100.00
2024-04-15T20:10:50.826Z,100.00
2024-04-15T20:15:58.684Z,100.00
2024-04-15T20:21:07.950Z,100.00
2024-04-15T20:26:17.678Z,100.00
2024-04-15T20:39:35.922Z,100.00
2024-04-15T20:44:59.105Z,100.00
2024-04-15T20:50:29.488Z,100.00
2024-04-15T20:55:46.157Z,100.00
2024-04-15T21:00:52.969Z,100.00
2024-04-15T21:06:00.205Z,100.00
2024-04-15T21:11:08.171Z,100.00
2024-04-15T21:16:13.275Z,100.00
2024-04-15T21:21:18.257Z,100.00
2024-04-15T21:26:25.932Z,100.00
2024-04-15T21:31:31.042Z,100.00
2024-04-15T21:36:37.087Z,100.00
2024-04-15T21:41:44.782Z,100.00
2024-04-15T21:46:49.899Z,100.00
2024-04-15T21:51:54.916Z,100.00
2024-04-15T21:57:02.588Z,100.00
2024-04-15T22:02:08.082Z,100.00
2024-04-15T22:07:13.146Z,100.00
2024-04-15T22:12:20.795Z,100.00
2024-04-15T22:17:29.024Z,100.00
2024-04-15T22:22:33.957Z,100.00
2024-04-15T22:27:41.666Z,100.00
2024-04-15T22:32:46.778Z,100.00
2024-04-15T22:37:52.152Z,100.00
2024-04-15T22:42:59.839Z,100.00
2024-04-15T22:48:06.229Z,100.00
2024-04-15T22:53:11.263Z,100.00
2024-04-15T22:58:18.997Z,100.00
2024-04-15T23:03:24.182Z,100.00
2024-04-15T23:08:29.349Z,100.00
2024-04-15T23:13:37.066Z,100.00
2024-04-15T23:18:44.631Z,100.00
2024-04-15T23:23:49.689Z,100.00
2024-04-15T23:28:57.482Z,100.00
2024-04-15T23:34:02.576Z,100.00
2024-04-15T23:39:07.629Z,100.00
2024-04-15T23:44:15.319Z,100.00
2024-04-15T23:49:42.027Z,100.00
2024-04-15T23:55:06.072Z,100.00
